createdAt,value
2023-05-16T00:02:37.916Z,99693.25
2023-05-16T00:05:41.110Z,99675.16
2023-05-16T00:08:43.726Z,99675.25
2023-05-16T00:11:48.348Z,99669.00
2023-05-16T00:14:52.309Z,99672.59
2023-05-16T00:17:59.356Z,99677.94
2023-05-16T00:21:02.245Z,99684.31
2023-05-16T00:24:08.140Z,99688.97
2023-05-16T00:27:10.724Z,99686.44
2023-05-16T00:30:13.841Z,99689.72
2023-05-16T00:33:16.928Z,99686.44
2023-05-16T00:36:20.969Z,99688.94
2023-05-16T00:39:26.146Z,99687.06
2023-05-16T00:42:29.109Z,99681.53
2023-05-16T00:45:31.772Z,99689.88
2023-05-16T00:48:34.819Z,99699.34
2023-05-16T00:51:39.407Z,99703.09
2023-05-16T00:54:42.481Z,99701.06
2023-05-16T00:57:45.349Z,99698.22
2023-05-16T01:00:48.980Z,99692.66
2023-05-16T01:03:52.054Z,99698.75
2023-05-16T01:06:58.504Z,99700.19
2023-05-16T01:10:03.650Z,99692.81
2023-05-16T01:13:17.357Z,99692.66
2023-05-16T01:16:26.422Z,99700.84
2023-05-16T01:19:32.750Z,99708.41
2023-05-16T01:22:47.678Z,99680.09
2023-05-16T01:26:09.444Z,99659.25
2023-05-16T01:29:12.746Z,99673.84
2023-05-16T01:32:16.856Z,99667.53
2023-05-16T01:35:21.904Z,99660.34
2023-05-16T01:38:39.527Z,99663.38
2023-05-16T01:41:42.274Z,99660.44
2023-05-16T01:44:54.634Z,99657.44
2023-05-16T01:48:10.970Z,99663.88
2023-05-16T01:51:14.198Z,99674.41
2023-05-16T01:54:19.238Z,99670.75
2023-05-16T01:57:26.018Z,99670.66
2023-05-16T02:00:28.976Z,99664.34
2023-05-16T02:03:35.879Z,99650.34
2023-05-16T02:06:38.564Z,99653.91
2023-05-16T02:09:41.718Z,99650.63
2023-05-16T02:12:44.363Z,99651.25
2023-05-16T02:15:47.411Z,99623.88
2023-05-16T02:18:50.528Z,99626.69
2023-05-16T02:21:53.306Z,99608.44
2023-05-16T02:24:56.461Z,99614.69
2023-05-16T02:27:59.096Z,99618.44
2023-05-16T02:31:02.353Z,99625.88
2023-05-16T02:34:05.286Z,99626.78
2023-05-16T02:37:08.188Z,99639.69
2023-05-16T02:40:11.205Z,99646.06
2023-05-16T02:43:14.459Z,99645.88
2023-05-16T02:46:28.560Z,99642.44
2023-05-16T02:49:31.675Z,99614.81
2023-05-16T02:52:36.464Z,99594.53
2023-05-16T02:55:39.738Z,99594.03
2023-05-16T02:58:43.400Z,99594.41
2023-05-16T03:01:46.442Z,99610.06
2023-05-16T03:04:49.121Z,99626.34
2023-05-16T03:07:52.086Z,99614.59
2023-05-16T03:10:54.723Z,99617.12
2023-05-16T03:14:01.559Z,99618.72
2023-05-16T03:17:04.926Z,99618.22
2023-05-16T03:20:09.481Z,99619.66
2023-05-16T03:23:12.719Z,99617.91
2023-05-16T03:26:15.890Z,99608.62
2023-05-16T03:29:19.285Z,99606.75
2023-05-16T03:32:22.307Z,99606.56
2023-05-16T03:35:25.387Z,99611.16
2023-05-16T03:38:28.628Z,99617.31
2023-05-16T03:41:31.755Z,99605.22
2023-05-16T03:44:35.121Z,99602.81
2023-05-16T03:47:38.005Z,99577.56
2023-05-16T03:50:41.366Z,99579.25
2023-05-16T03:53:44.089Z,99592.47
2023-05-16T03:56:46.988Z,99593.31
2023-05-16T03:59:49.647Z,99595.25
2023-05-16T04:02:56.824Z,99588.38
2023-05-16T04:06:20.127Z,99595.13
2023-05-16T04:09:23.030Z,99615.78
2023-05-16T04:12:26.198Z,99621.34
2023-05-16T04:15:29.324Z,99636.28
2023-05-16T04:18:49.212Z,99642.72
2023-05-16T04:21:52.526Z,99640.88
2023-05-16T04:24:56.161Z,99640.00
2023-05-16T04:27:59.141Z,99647.12
2023-05-16T04:31:26.548Z,99652.09
2023-05-16T04:34:29.274Z,99653.91
2023-05-16T04:37:32.368Z,99636.44
2023-05-16T04:40:35.326Z,99637.06
2023-05-16T04:43:38.311Z,99646.66
2023-05-16T04:46:45.442Z,99657.31
2023-05-16T04:50:09.951Z,99669.00
2023-05-16T04:53:15.127Z,99665.44
2023-05-16T04:56:18.953Z,99661.38
2023-05-16T04:59:41.560Z,99669.56
2023-05-16T05:02:45.101Z,99676.50
2023-05-16T05:05:48.708Z,99669.59
2023-05-16T05:08:56.289Z,99662.50
2023-05-16T05:12:00.243Z,99652.69
2023-05-16T05:15:23.252Z,99662.16
2023-05-16T05:18:26.373Z,99649.78
2023-05-16T05:21:31.035Z,99640.16
2023-05-16T05:24:33.793Z,99649.16
2023-05-16T05:27:41.581Z,99646.62
2023-05-16T05:30:48.503Z,99637.81
2023-05-16T05:34:27.970Z,99637.34
2023-05-16T05:37:30.819Z,99630.38
2023-05-16T05:40:34.093Z,99635.22
2023-05-16T05:43:56.595Z,99624.50
2023-05-16T05:46:59.769Z,99622.59
2023-05-16T05:50:04.127Z,99624.84
2023-05-16T05:53:27.251Z,99629.03
2023-05-16T05:56:29.992Z,99631.81
2023-05-16T05:59:34.263Z,99637.78
2023-05-16T06:02:37.345Z,99628.66
2023-05-16T06:05:40.630Z,99622.63
2023-05-16T06:08:44.145Z,99617.59
2023-05-16T06:11:47.232Z,99608.47
2023-05-16T06:14:50.778Z,99602.13
2023-05-16T06:17:58.122Z,99604.97
2023-05-16T06:21:00.972Z,99600.00
2023-05-16T06:24:05.719Z,99584.53
2023-05-16T06:27:09.233Z,99590.53
2023-05-16T06:30:31.477Z,99598.72
2023-05-16T06:33:37.643Z,99612.28
2023-05-16T06:36:40.953Z,99610.22
2023-05-16T06:39:44.648Z,99613.50
2023-05-16T06:42:48.514Z,99610.34
2023-05-16T06:45:56.102Z,99613.50
2023-05-16T06:49:02.298Z,99609.56
2023-05-16T06:52:05.971Z,99604.63
2023-05-16T06:55:17.333Z,99602.28
2023-05-16T06:58:22.478Z,99587.81
2023-05-16T07:01:28.268Z,99601.34
2023-05-16T07:04:37.898Z,99599.59
2023-05-16T07:07:41.215Z,99587.03
2023-05-16T07:11:03.949Z,99587.16
2023-05-16T07:14:07.493Z,99573.94
2023-05-16T07:17:10.761Z,99571.75
2023-05-16T07:20:14.863Z,99569.69
2023-05-16T07:23:17.616Z,99561.22
2023-05-16T07:26:23.236Z,99578.69
2023-05-16T07:29:27.193Z,99583.91
2023-05-16T07:32:30.715Z,99587.09
2023-05-16T07:35:34.637Z,99600.31
2023-05-16T07:38:43.452Z,99602.06
2023-05-16T07:41:46.699Z,99589.44
2023-05-16T07:44:50.198Z,99607.72
2023-05-16T07:47:56.534Z,99586.62
2023-05-16T07:51:00.465Z,99554.03
2023-05-16T07:54:25.154Z,99544.44
2023-05-16T07:57:57.582Z,99541.59
2023-05-16T08:01:04.449Z,99544.44
2023-05-16T08:04:28.681Z,99540.34
2023-05-16T08:08:11.189Z,99549.31
2023-05-16T08:11:22.966Z,99558.00
2023-05-16T08:15:05.998Z,99556.09
2023-05-16T08:18:29.008Z,99555.97
2023-05-16T08:21:51.778Z,99566.66
2023-05-16T08:25:17.074Z,99563.69
2023-05-16T08:28:36.766Z,99557.22
2023-05-16T08:32:01.602Z,99558.00
2023-05-16T08:35:24.446Z,99560.22
2023-05-16T08:38:50.143Z,99564.00
2023-05-16T08:41:55.668Z,99561.63
2023-05-16T08:45:40.420Z,99562.25
2023-05-16T08:48:47.289Z,99562.09
2023-05-16T08:51:56.770Z,99555.44
2023-05-16T08:55:27.900Z,99569.66
2023-05-16T08:58:55.207Z,99564.13
2023-05-16T09:02:01.042Z,99557.38
2023-05-16T09:05:44.201Z,99549.31
2023-05-16T09:08:47.301Z,99542.84
2023-05-16T09:12:15.615Z,99549.94
2023-05-16T09:15:32.784Z,99544.06
2023-05-16T09:18:40.484Z,99539.94
2023-05-16T09:22:03.799Z,99541.34
2023-05-16T09:25:32.045Z,99538.03
2023-05-16T09:28:39.993Z,99541.19
2023-05-16T09:32:29.312Z,99527.47
2023-05-16T09:38:55.758Z,99513.28
2023-05-16T09:41:59.650Z,99523.72
2023-05-16T09:45:03.914Z,99533.50
2023-05-16T09:48:13.222Z,99532.38
2023-05-16T09:51:22.636Z,99533.03
2023-05-16T09:54:33.159Z,99544.22
2023-05-16T09:58:06.038Z,99539.50
2023-05-16T10:01:28.957Z,99542.63
2023-05-16T10:04:42.452Z,99538.72
2023-05-16T10:07:59.437Z,99529.41
2023-05-16T10:11:12.486Z,99524.38
2023-05-16T10:14:41.419Z,99528.63
2023-05-16T10:18:12.184Z,99536.66
2023-05-16T10:21:17.226Z,99534.44
2023-05-16T10:24:26.798Z,99521.19
2023-05-16T10:27:31.285Z,99512.53
2023-05-16T10:30:56.375Z,99494.62
2023-05-16T10:34:07.747Z,99496.16
2023-05-16T10:37:11.151Z,99495.16
2023-05-16T10:40:14.728Z,99493.13
2023-05-16T10:43:38.429Z,99490.53
2023-05-16T10:46:43.056Z,99482.84
2023-05-16T10:49:49.140Z,99489.25
2023-05-16T10:52:56.480Z,99492.22
2023-05-16T10:56:03.980Z,99490.22
2023-05-16T10:59:24.736Z,99470.53
2023-05-16T11:02:32.868Z,99470.62
2023-05-16T11:05:35.893Z,99468.28
2023-05-16T11:09:04.340Z,99466.13
2023-05-16T11:12:13.010Z,99474.81
2023-05-16T11:15:28.336Z,99470.88
2023-05-16T11:18:33.466Z,99467.87
2023-05-16T11:22:11.986Z,99474.06
2023-05-16T11:25:14.724Z,99478.59
2023-05-16T11:28:22.658Z,99464.12
2023-05-16T11:31:25.617Z,99450.06
2023-05-16T11:34:30.508Z,99445.50
2023-05-16T11:37:34.118Z,99449.78
2023-05-16T11:40:37.302Z,99437.69
2023-05-16T11:43:45.279Z,99441.16
2023-05-16T11:46:48.340Z,99445.41
2023-05-16T11:49:51.126Z,99449.12
2023-05-16T11:52:56.275Z,99453.34
2023-05-16T11:56:01.505Z,99444.72
2023-05-16T11:59:07.983Z,99441.28
2023-05-16T12:02:10.927Z,99421.84
2023-05-16T12:05:19.006Z,99420.28
2023-05-16T12:08:22.751Z,99417.94
2023-05-16T12:11:45.460Z,99414.94
2023-05-16T12:14:50.786Z,99424.34
2023-05-16T12:18:04.625Z,99420.38
2023-05-16T12:21:27.521Z,99421.87
2023-05-16T12:24:32.086Z,99420.31
2023-05-16T12:27:45.494Z,99425.88
2023-05-16T12:30:48.957Z,99433.25
2023-05-16T12:33:55.049Z,99428.56
2023-05-16T12:36:59.760Z,99433.72
2023-05-16T12:40:04.347Z,99433.75
2023-05-16T12:43:19.835Z,99417.94
2023-05-16T12:46:23.344Z,99397.25
2023-05-16T12:49:26.746Z,99395.69
2023-05-16T12:52:29.596Z,99378.13
2023-05-16T12:55:32.800Z,99393.47
2023-05-16T12:58:37.461Z,99393.47
2023-05-16T13:01:44.551Z,99395.47
2023-05-16T13:04:49.672Z,99389.31
2023-05-16T13:07:53.377Z,99378.25
2023-05-16T13:10:56.787Z,99369.72
2023-05-16T13:14:19.768Z,99361.88
2023-05-16T13:17:23.925Z,99368.19
2023-05-16T13:20:27.108Z,99357.19
2023-05-16T13:23:30.792Z,99363.22
2023-05-16T13:26:40.432Z,99364.12
2023-05-16T13:29:43.239Z,99374.56
2023-05-16T13:32:46.750Z,99376.78
2023-05-16T13:35:49.594Z,99369.16
2023-05-16T13:39:31.739Z,99374.09
2023-05-16T13:42:54.353Z,99386.75
2023-05-16T13:46:00.090Z,99393.00
2023-05-16T13:49:02.900Z,99394.13
2023-05-16T13:52:06.758Z,99402.09
2023-05-16T13:55:09.815Z,99396.16
2023-05-16T13:58:12.936Z,99393.91
2023-05-16T14:01:16.078Z,99389.69
2023-05-16T14:04:21.725Z,99374.09
2023-05-16T14:07:24.766Z,99354.72
2023-05-16T14:10:28.134Z,99353.72
2023-05-16T14:13:32.125Z,99354.72
2023-05-16T14:16:35.472Z,99346.66
2023-05-16T14:19:41.370Z,99351.38
2023-05-16T14:22:45.178Z,99342.31
2023-05-16T14:25:48.747Z,99339.75
2023-05-16T14:28:52.370Z,99334.25
2023-05-16T14:31:55.232Z,99340.63
2023-05-16T14:35:01.928Z,99337.06
2023-05-16T14:38:05.020Z,99330.66
2023-05-16T14:41:13.617Z,99332.09
2023-05-16T14:44:16.909Z,99327.84
2023-05-16T14:47:20.340Z,99324.63
2023-05-16T14:50:26.780Z,99321.59
2023-05-16T14:53:31.423Z,99316.91
2023-05-16T14:56:34.426Z,99315.66
2023-05-16T14:59:37.594Z,99319.12
2023-05-16T15:02:41.345Z,99320.47
2023-05-16T15:05:45.545Z,99317.22
2023-05-16T15:08:48.622Z,99310.19
2023-05-16T15:11:53.412Z,99301.91
2023-05-16T15:14:56.385Z,99293.50
2023-05-16T15:17:59.485Z,99298.19
2023-05-16T15:21:02.736Z,99292.28
2023-05-16T15:24:06.797Z,99289.12
2023-05-16T15:27:16.074Z,99299.00
2023-05-16T15:30:19.559Z,99302.44
2023-05-16T15:33:22.285Z,99293.63
2023-05-16T15:36:25.492Z,99277.94
2023-05-16T15:39:31.638Z,99276.59
2023-05-16T15:42:55.243Z,99294.72
2023-05-16T15:46:18.301Z,99288.00
2023-05-16T15:49:22.378Z,99267.41
2023-05-16T15:52:25.214Z,99267.75
2023-05-16T15:55:29.828Z,99284.31
2023-05-16T15:58:36.538Z,99275.81
2023-05-16T16:01:40.268Z,99283.28
2023-05-16T16:04:44.119Z,99274.34
2023-05-16T16:07:51.411Z,99273.66
2023-05-16T16:10:57.653Z,99271.00
2023-05-16T16:14:03.754Z,99271.09
2023-05-16T16:17:09.442Z,99270.31
2023-05-16T16:20:12.585Z,99268.63
2023-05-16T16:23:16.668Z,99281.03
2023-05-16T16:26:39.608Z,99297.16
2023-05-16T16:29:42.888Z,99291.13
2023-05-16T16:32:48.973Z,99284.19
2023-05-16T16:35:54.396Z,99297.28
2023-05-16T16:38:57.580Z,99296.06
2023-05-16T16:42:01.380Z,99297.59
2023-05-16T16:45:05.722Z,99284.84
2023-05-16T16:48:09.454Z,99280.91
2023-05-16T16:51:12.988Z,99271.00
2023-05-16T16:54:19.544Z,99257.22
2023-05-16T16:57:26.399Z,99266.12
2023-05-16T17:00:30.005Z,99268.72
2023-05-16T17:03:33.229Z,99281.84
2023-05-16T17:06:36.712Z,99288.53
2023-05-16T17:09:42.241Z,99310.28
2023-05-16T17:12:49.455Z,99300.50
2023-05-16T17:15:52.468Z,99307.00
2023-05-16T17:18:56.495Z,99295.34
2023-05-16T17:21:59.691Z,99308.91
2023-05-16T17:25:04.172Z,99305.41
2023-05-16T17:28:07.819Z,99317.03
2023-05-16T17:31:11.340Z,99306.31
2023-05-16T17:34:15.196Z,99313.13
2023-05-16T17:37:19.824Z,99310.97
2023-05-16T17:40:23.090Z,99307.87
2023-05-16T17:43:26.792Z,99311.28
2023-05-16T17:46:30.967Z,99309.81
2023-05-16T17:49:35.831Z,99313.63
2023-05-16T17:52:42.224Z,99312.25
2023-05-16T17:55:46.585Z,99317.41
2023-05-16T17:58:50.317Z,99319.97
2023-05-16T18:01:55.669Z,99313.28
2023-05-16T18:05:00.618Z,99317.78
2023-05-16T18:08:04.474Z,99315.06
2023-05-16T18:11:11.273Z,99318.62
2023-05-16T18:14:15.448Z,99309.84
2023-05-16T18:17:19.926Z,99313.97
2023-05-16T18:20:23.459Z,99311.06
2023-05-16T18:23:27.066Z,99324.25
2023-05-16T18:26:32.803Z,99325.16
2023-05-16T18:29:39.324Z,99330.75
2023-05-16T18:32:43.111Z,99331.19
2023-05-16T18:35:46.601Z,99320.91
2023-05-16T18:38:49.892Z,99321.81
2023-05-16T18:41:53.571Z,99313.38
2023-05-16T18:44:58.749Z,99322.66
2023-05-16T18:48:05.538Z,99319.88
2023-05-16T18:51:09.402Z,99316.22
2023-05-16T18:54:13.006Z,99317.56
2023-05-16T18:57:17.758Z,99320.25
2023-05-16T19:00:22.485Z,99322.28
2023-05-16T19:03:26.556Z,99324.03
2023-05-16T19:06:30.083Z,99342.72
2023-05-16T19:09:36.266Z,99339.50
2023-05-16T19:12:39.811Z,99335.47
2023-05-16T19:15:43.978Z,99342.19
2023-05-16T19:18:47.527Z,99343.97
2023-05-16T19:21:50.980Z,99335.47
2023-05-16T19:24:54.665Z,99342.06
2023-05-16T19:28:01.049Z,99345.31
2023-05-16T19:31:04.661Z,99345.97
2023-05-16T19:34:10.398Z,99350.47
2023-05-16T19:37:14.341Z,99333.31
2023-05-16T19:40:18.751Z,99331.22
2023-05-16T19:43:22.174Z,99332.78
2023-05-16T19:46:29.834Z,99327.06
2023-05-16T19:49:33.958Z,99332.44
2023-05-16T19:52:36.772Z,99330.75
2023-05-16T19:55:39.959Z,99329.63
2023-05-16T19:58:44.062Z,99329.41
2023-05-16T20:01:47.113Z,99329.19
2023-05-16T20:04:50.443Z,99324.72
2023-05-16T20:07:54.603Z,99318.13
2023-05-16T20:10:57.781Z,99317.31
2023-05-16T20:14:00.652Z,99324.38
2023-05-16T20:17:04.266Z,99323.28
2023-05-16T20:20:09.456Z,99326.06
2023-05-16T20:23:15.893Z,99322.25
2023-05-16T20:26:21.512Z,99328.19
2023-05-16T20:29:24.662Z,99332.44
2023-05-16T20:32:28.164Z,99322.94
2023-05-16T20:35:32.376Z,99321.34
2023-05-16T20:38:35.180Z,99316.44
2023-05-16T20:41:38.272Z,99324.84
2023-05-16T20:44:41.980Z,99316.44
2023-05-16T20:47:45.283Z,99311.72
2023-05-16T20:50:48.170Z,99306.03
2023-05-16T20:53:54.196Z,99307.81
2023-05-16T20:56:56.932Z,99288.00
2023-05-16T20:59:59.980Z,99283.22
2023-05-16T21:03:02.989Z,99294.47
2023-05-16T21:06:09.265Z,99284.75
2023-05-16T21:09:12.299Z,99269.44
2023-05-16T21:12:15.640Z,99276.59
2023-05-16T21:15:19.865Z,99287.75
2023-05-16T21:18:24.796Z,99292.37
2023-05-16T21:21:27.678Z,99314.06
2023-05-16T21:24:35.109Z,99313.16
2023-05-16T21:27:37.876Z,99307.56
2023-05-16T21:30:41.881Z,99301.75
2023-05-16T21:33:47.628Z,99310.03
2023-05-16T21:36:51.036Z,99314.16
2023-05-16T21:39:53.734Z,99314.16
2023-05-16T21:42:57.983Z,99313.50
2023-05-16T21:46:00.758Z,99305.16
2023-05-16T21:49:04.120Z,99299.91
2023-05-16T21:52:07.760Z,99300.41
2023-05-16T21:55:11.203Z,99305.31
2023-05-16T21:58:13.945Z,99300.84
2023-05-16T22:01:17.383Z,99305.31
2023-05-16T22:04:20.607Z,99306.91
2023-05-16T22:07:29.083Z,99316.91
2023-05-16T22:10:33.057Z,99312.63
2023-05-16T22:13:35.813Z,99313.47
2023-05-16T22:16:38.994Z,99302.69
2023-05-16T22:19:43.554Z,99306.19
2023-05-16T22:22:46.721Z,99308.81
2023-05-16T22:25:49.717Z,99301.84
